sensor_id;sensor_type;location;lat;lon;timestamp;temperature;humidity
38938;DHT22;24727;51.974;20.868;2023-03-14T00:01:27;8.30;1.00
38938;DHT22;24727;51.974;20.868;2023-03-14T00:03:52;8.40;1.00
38938;DHT22;24727;51.974;20.868;2023-03-14T00:06:20;8.30;1.00
38938;DHT22;24727;51.974;20.868;2023-03-14T00:08:47;8.20;1.00
38938;DHT22;24727;51.974;20.868;2023-03-14T00:11:16;8.20;1.00
38938;DHT22;24727;51.974;20.868;2023-03-14T00:13:42;8.30;1.00
38938;DHT22;24727;51.974;20.868;2023-03-14T00:16:11;8.30;1.00
38938;DHT22;24727;51.974;20.868;2023-03-14T00:18:38;8.30;1.00
38938;DHT22;24727;51.974;20.868;2023-03-14T00:21:06;8.20;1.00
38938;DHT22;24727;51.974;20.868;2023-03-14T00:23:33;8.10;1.00
38938;DHT22;24727;51.974;20.868;2023-03-14T00:26:00;8.20;1.00
38938;DHT22;24727;51.974;20.868;2023-03-14T00:28:27;8.10;1.00
38938;DHT22;24727;51.974;20.868;2023-03-14T00:30:54;8.10;1.00
38938;DHT22;24727;51.974;20.868;2023-03-14T00:33:21;8.00;1.00
38938;DHT22;24727;51.974;20.868;2023-03-14T00:35:58;7.90;1.00
38938;DHT22;24727;51.974;20.868;2023-03-14T00:38:25;8.00;1.00
38938;DHT22;24727;51.974;20.868;2023-03-14T00:40:52;7.80;1.00
38938;DHT22;24727;51.974;20.868;2023-03-14T00:43:19;7.80;1.00
38938;DHT22;24727;51.974;20.868;2023-03-14T00:45:51;7.80;1.00
38938;DHT22;24727;51.974;20.868;2023-03-14T00:48:19;8.00;1.00
38938;DHT22;24727;51.974;20.868;2023-03-14T00:50:45;7.90;1.00
38938;DHT22;24727;51.974;20.868;2023-03-14T00:53:13;7.80;1.00
38938;DHT22;24727;51.974;20.868;2023-03-14T00:55:41;7.80;1.00
38938;DHT22;24727;51.974;20.868;2023-03-14T00:58:09;7.80;1.00
38938;DHT22;24727;51.974;20.868;2023-03-14T01:00:36;7.70;1.00
38938;DHT22;24727;51.974;20.868;2023-03-14T01:03:03;7.80;1.00
38938;DHT22;24727;51.974;20.868;2023-03-14T01:05:35;7.80;1.00
38938;DHT22;24727;51.974;20.868;2023-03-14T01:08:02;7.70;1.00
38938;DHT22;24727;51.974;20.868;2023-03-14T01:10:29;7.70;1.00
38938;DHT22;24727;51.974;20.868;2023-03-14T01:12:56;7.80;1.00
38938;DHT22;24727;51.974;20.868;2023-03-14T01:15:23;7.80;1.00
38938;DHT22;24727;51.974;20.868;2023-03-14T01:17:49;7.80;1.00
38938;DHT22;24727;51.974;20.868;2023-03-14T01:20:16;7.70;1.00
38938;DHT22;24727;51.974;20.868;2023-03-14T01:22:43;7.80;1.00
38938;DHT22;24727;51.974;20.868;2023-03-14T01:25:13;7.60;1.00
38938;DHT22;24727;51.974;20.868;2023-03-14T01:27:40;7.60;1.00
38938;DHT22;24727;51.974;20.868;2023-03-14T01:30:07;7.60;1.00
38938;DHT22;24727;51.974;20.868;2023-03-14T01:32:34;7.50;1.00
38938;DHT22;24727;51.974;20.868;2023-03-14T01:35:02;7.50;1.00
38938;DHT22;24727;51.974;20.868;2023-03-14T01:37:28;7.50;1.00
38938;DHT22;24727;51.974;20.868;2023-03-14T01:39:54;7.40;1.00
38938;DHT22;24727;51.974;20.868;2023-03-14T01:42:20;7.40;1.00
38938;DHT22;24727;51.974;20.868;2023-03-14T01:44:52;7.40;1.00
38938;DHT22;24727;51.974;20.868;2023-03-14T01:47:19;7.30;1.00
38938;DHT22;24727;51.974;20.868;2023-03-14T01:49:47;7.40;1.00
38938;DHT22;24727;51.974;20.868;2023-03-14T01:52:32;7.40;1.00
38938;DHT22;24727;51.974;20.868;2023-03-14T01:55:11;7.40;1.00
38938;DHT22;24727;51.974;20.868;2023-03-14T01:57:45;7.40;1.00
38938;DHT22;24727;51.974;20.868;2023-03-14T02:02:53;7.20;1.00
38938;DHT22;24727;51.974;20.868;2023-03-14T02:05:28;7.10;1.00
38938;DHT22;24727;51.974;20.868;2023-03-14T02:07:58;7.10;1.00
38938;DHT22;24727;51.974;20.868;2023-03-14T02:10:26;7.00;1.00
38938;DHT22;24727;51.974;20.868;2023-03-14T02:12:55;7.00;1.00
38938;DHT22;24727;51.974;20.868;2023-03-14T02:15:22;7.00;1.00
38938;DHT22;24727;51.974;20.868;2023-03-14T02:17:50;6.90;1.00
38938;DHT22;24727;51.974;20.868;2023-03-14T02:20:38;6.90;1.00
38938;DHT22;24727;51.974;20.868;2023-03-14T02:23:04;6.90;1.00
38938;DHT22;24727;51.974;20.868;2023-03-14T02:28:00;6.90;1.00
38938;DHT22;24727;51.974;20.868;2023-03-14T02:30:28;6.90;1.00
38938;DHT22;24727;51.974;20.868;2023-03-14T02:33:16;7.00;1.00
38938;DHT22;24727;51.974;20.868;2023-03-14T02:35:50;7.00;1.00
38938;DHT22;24727;51.974;20.868;2023-03-14T02:40:45;7.00;1.00
38938;DHT22;24727;51.974;20.868;2023-03-14T02:43:12;7.00;1.00
38938;DHT22;24727;51.974;20.868;2023-03-14T02:45:44;6.90;1.00
38938;DHT22;24727;51.974;20.868;2023-03-14T02:48:18;7.00;1.00
38938;DHT22;24727;51.974;20.868;2023-03-14T02:50:46;7.00;1.00
38938;DHT22;24727;51.974;20.868;2023-03-14T02:53:17;7.00;1.00
38938;DHT22;24727;51.974;20.868;2023-03-14T02:55:48;6.90;1.00
38938;DHT22;24727;51.974;20.868;2023-03-14T02:58:15;6.90;1.00
38938;DHT22;24727;51.974;20.868;2023-03-14T03:00:43;6.90;1.00
38938;DHT22;24727;51.974;20.868;2023-03-14T03:03:10;6.80;1.00
38938;DHT22;24727;51.974;20.868;2023-03-14T03:05:37;6.70;1.00
38938;DHT22;24727;51.974;20.868;2023-03-14T03:08:04;6.70;1.00
38938;DHT22;24727;51.974;20.868;2023-03-14T03:10:31;6.70;1.00
38938;DHT22;24727;51.974;20.868;2023-03-14T03:12:57;6.80;1.00
38938;DHT22;24727;51.974;20.868;2023-03-14T03:15:24;6.80;1.00
38938;DHT22;24727;51.974;20.868;2023-03-14T03:17:50;6.80;1.00
38938;DHT22;24727;51.974;20.868;2023-03-14T03:20:16;6.80;1.00
38938;DHT22;24727;51.974;20.868;2023-03-14T03:22:43;6.80;1.00
38938;DHT22;24727;51.974;20.868;2023-03-14T03:25:10;6.90;1.00
38938;DHT22;24727;51.974;20.868;2023-03-14T03:27:37;6.90;1.00
38938;DHT22;24727;51.974;20.868;2023-03-14T03:30:05;6.90;1.00
38938;DHT22;24727;51.974;20.868;2023-03-14T03:32:31;6.90;1.00
38938;DHT22;24727;51.974;20.868;2023-03-14T03:34:57;6.90;1.00
38938;DHT22;24727;51.974;20.868;2023-03-14T03:37:24;6.90;1.00
38938;DHT22;24727;51.974;20.868;2023-03-14T03:39:51;6.90;1.00
38938;DHT22;24727;51.974;20.868;2023-03-14T03:42:17;6.90;1.00
38938;DHT22;24727;51.974;20.868;2023-03-14T03:44:50;7.00;1.00
38938;DHT22;24727;51.974;20.868;2023-03-14T03:47:16;7.00;1.00
38938;DHT22;24727;51.974;20.868;2023-03-14T03:49:42;7.00;1.00
38938;DHT22;24727;51.974;20.868;2023-03-14T03:52:09;7.00;1.00
38938;DHT22;24727;51.974;20.868;2023-03-14T03:54:35;7.00;1.00
38938;DHT22;24727;51.974;20.868;2023-03-14T03:57:02;7.00;1.00
38938;DHT22;24727;51.974;20.868;2023-03-14T03:59:28;6.90;1.00
38938;DHT22;24727;51.974;20.868;2023-03-14T04:01:54;6.90;1.00
38938;DHT22;24727;51.974;20.868;2023-03-14T04:04:21;6.90;1.00
38938;DHT22;24727;51.974;20.868;2023-03-14T04:06:55;6.90;1.00
38938;DHT22;24727;51.974;20.868;2023-03-14T04:09:21;6.90;1.00
38938;DHT22;24727;51.974;20.868;2023-03-14T04:11:47;6.80;1.00
38938;DHT22;24727;51.974;20.868;2023-03-14T04:14:13;6.70;1.00
38938;DHT22;24727;51.974;20.868;2023-03-14T04:16:39;6.80;1.00
38938;DHT22;24727;51.974;20.868;2023-03-14T04:19:06;6.90;1.00
38938;DHT22;24727;51.974;20.868;2023-03-14T04:21:32;6.80;1.00
38938;DHT22;24727;51.974;20.868;2023-03-14T04:23:58;6.80;1.00
38938;DHT22;24727;51.974;20.868;2023-03-14T04:26:24;6.80;1.00
38938;DHT22;24727;51.974;20.868;2023-03-14T04:28:50;6.70;1.00
38938;DHT22;24727;51.974;20.868;2023-03-14T04:31:20;6.70;1.00
38938;DHT22;24727;51.974;20.868;2023-03-14T04:33:47;6.70;1.00
38938;DHT22;24727;51.974;20.868;2023-03-14T04:36:14;6.70;1.00
38938;DHT22;24727;51.974;20.868;2023-03-14T04:38:40;6.70;1.00
38938;DHT22;24727;51.974;20.868;2023-03-14T04:41:07;6.70;1.00
38938;DHT22;24727;51.974;20.868;2023-03-14T04:43:33;6.70;1.00
38938;DHT22;24727;51.974;20.868;2023-03-14T04:46:00;6.70;1.00
38938;DHT22;24727;51.974;20.868;2023-03-14T04:48:27;6.80;1.00
38938;DHT22;24727;51.974;20.868;2023-03-14T04:50:55;6.70;1.00
38938;DHT22;24727;51.974;20.868;2023-03-14T04:53:21;6.70;1.00
38938;DHT22;24727;51.974;20.868;2023-03-14T04:55:49;6.80;1.00
38938;DHT22;24727;51.974;20.868;2023-03-14T04:58:15;6.60;1.00
38938;DHT22;24727;51.974;20.868;2023-03-14T05:00:41;6.70;1.00
38938;DHT22;24727;51.974;20.868;2023-03-14T05:03:10;6.80;1.00
38938;DHT22;24727;51.974;20.868;2023-03-14T05:05:46;6.80;1.00
38938;DHT22;24727;51.974;20.868;2023-03-14T05:08:13;6.80;1.00
38938;DHT22;24727;51.974;20.868;2023-03-14T05:10:39;6.90;1.00
38938;DHT22;24727;51.974;20.868;2023-03-14T05:13:05;6.80;1.00
38938;DHT22;24727;51.974;20.868;2023-03-14T05:15:32;6.80;1.00
38938;DHT22;24727;51.974;20.868;2023-03-14T05:17:58;6.80;1.00
38938;DHT22;24727;51.974;20.868;2023-03-14T05:20:24;6.70;1.00
38938;DHT22;24727;51.974;20.868;2023-03-14T05:22:53;6.70;1.00
38938;DHT22;24727;51.974;20.868;2023-03-14T05:25:21;6.70;1.00
38938;DHT22;24727;51.974;20.868;2023-03-14T05:27:48;6.70;1.00
38938;DHT22;24727;51.974;20.868;2023-03-14T05:30:14;6.70;1.00
38938;DHT22;24727;51.974;20.868;2023-03-14T05:32:40;6.70;1.00
38938;DHT22;24727;51.974;20.868;2023-03-14T05:35:07;6.70;1.00
38938;DHT22;24727;51.974;20.868;2023-03-14T05:37:34;6.80;1.00
38938;DHT22;24727;51.974;20.868;2023-03-14T05:40:00;6.90;1.00
38938;DHT22;24727;51.974;20.868;2023-03-14T05:42:27;6.80;1.00
38938;DHT22;24727;51.974;20.868;2023-03-14T05:44:55;6.70;1.00
38938;DHT22;24727;51.974;20.868;2023-03-14T05:47:20;6.70;1.00
38938;DHT22;24727;51.974;20.868;2023-03-14T05:49:48;6.60;1.00
38938;DHT22;24727;51.974;20.868;2023-03-14T05:52:14;6.70;1.00
38938;DHT22;24727;51.974;20.868;2023-03-14T05:54:40;6.70;1.00
38938;DHT22;24727;51.974;20.868;2023-03-14T05:57:11;6.70;1.00
38938;DHT22;24727;51.974;20.868;2023-03-14T05:59:37;6.70;1.00
38938;DHT22;24727;51.974;20.868;2023-03-14T06:02:03;6.70;1.00
38938;DHT22;24727;51.974;20.868;2023-03-14T06:04:30;6.90;1.00
38938;DHT22;24727;51.974;20.868;2023-03-14T06:06:57;7.00;1.00
38938;DHT22;24727;51.974;20.868;2023-03-14T06:09:23;7.10;1.00
38938;DHT22;24727;51.974;20.868;2023-03-14T06:11:50;7.30;1.00
38938;DHT22;24727;51.974;20.868;2023-03-14T06:14:17;7.30;1.00
38938;DHT22;24727;51.974;20.868;2023-03-14T06:16:43;7.40;1.00
38938;DHT22;24727;51.974;20.868;2023-03-14T06:19:09;7.50;1.00
38938;DHT22;24727;51.974;20.868;2023-03-14T06:21:36;7.70;1.00
38938;DHT22;24727;51.974;20.868;2023-03-14T06:24:02;7.80;1.00
38938;DHT22;24727;51.974;20.868;2023-03-14T06:26:30;8.00;1.00
38938;DHT22;24727;51.974;20.868;2023-03-14T06:28:57;8.10;1.00
38938;DHT22;24727;51.974;20.868;2023-03-14T06:31:26;8.30;1.00
38938;DHT22;24727;51.974;20.868;2023-03-14T06:33:56;8.30;1.00
38938;DHT22;24727;51.974;20.868;2023-03-14T06:36:22;8.40;1.00
38938;DHT22;24727;51.974;20.868;2023-03-14T06:38:48;8.60;1.00
38938;DHT22;24727;51.974;20.868;2023-03-14T06:41:14;8.70;1.00
38938;DHT22;24727;51.974;20.868;2023-03-14T06:43:40;8.90;1.00
38938;DHT22;24727;51.974;20.868;2023-03-14T06:46:07;9.10;1.00
38938;DHT22;24727;51.974;20.868;2023-03-14T06:48:33;9.20;1.00
38938;DHT22;24727;51.974;20.868;2023-03-14T06:50:59;9.40;1.00
38938;DHT22;24727;51.974;20.868;2023-03-14T06:53:25;9.50;1.00
38938;DHT22;24727;51.974;20.868;2023-03-14T06:55:52;9.70;1.00
38938;DHT22;24727;51.974;20.868;2023-03-14T06:58:18;9.70;1.00
38938;DHT22;24727;51.974;20.868;2023-03-14T07:00:44;10.00;1.00
38938;DHT22;24727;51.974;20.868;2023-03-14T07:03:11;10.20;1.00
38938;DHT22;24727;51.974;20.868;2023-03-14T07:05:38;10.40;1.00
38938;DHT22;24727;51.974;20.868;2023-03-14T07:08:07;10.60;1.00
38938;DHT22;24727;51.974;20.868;2023-03-14T07:10:33;10.70;1.00
38938;DHT22;24727;51.974;20.868;2023-03-14T07:13:00;10.80;1.00
38938;DHT22;24727;51.974;20.868;2023-03-14T07:15:27;10.90;1.00
38938;DHT22;24727;51.974;20.868;2023-03-14T07:17:53;10.80;1.00
38938;DHT22;24727;51.974;20.868;2023-03-14T07:20:19;10.70;1.00
38938;DHT22;24727;51.974;20.868;2023-03-14T07:22:49;10.70;1.00
38938;DHT22;24727;51.974;20.868;2023-03-14T07:25:16;10.80;1.00
38938;DHT22;24727;51.974;20.868;2023-03-14T07:27:46;10.90;1.00
38938;DHT22;24727;51.974;20.868;2023-03-14T07:30:16;11.00;1.00
38938;DHT22;24727;51.974;20.868;2023-03-14T07:32:42;11.20;1.00
38938;DHT22;24727;51.974;20.868;2023-03-14T07:35:08;11.20;1.00
38938;DHT22;24727;51.974;20.868;2023-03-14T07:37:35;11.20;1.00
38938;DHT22;24727;51.974;20.868;2023-03-14T07:40:01;11.30;1.00
38938;DHT22;24727;51.974;20.868;2023-03-14T07:42:26;11.40;1.00
38938;DHT22;24727;51.974;20.868;2023-03-14T07:44:53;11.70;1.00
38938;DHT22;24727;51.974;20.868;2023-03-14T07:47:19;11.80;1.00
38938;DHT22;24727;51.974;20.868;2023-03-14T07:49:48;11.90;1.00
38938;DHT22;24727;51.974;20.868;2023-03-14T07:52:15;12.10;1.00
38938;DHT22;24727;51.974;20.868;2023-03-14T07:54:44;12.20;1.00
38938;DHT22;24727;51.974;20.868;2023-03-14T07:57:10;12.30;1.00
38938;DHT22;24727;51.974;20.868;2023-03-14T07:59:36;12.10;1.00
38938;DHT22;24727;51.974;20.868;2023-03-14T08:02:02;12.00;1.00
38938;DHT22;24727;51.974;20.868;2023-03-14T08:04:33;12.20;1.00
38938;DHT22;24727;51.974;20.868;2023-03-14T08:06:59;12.10;1.00
38938;DHT22;24727;51.974;20.868;2023-03-14T08:09:26;12.20;1.00
38938;DHT22;24727;51.974;20.868;2023-03-14T08:11:52;12.40;1.00
38938;DHT22;24727;51.974;20.868;2023-03-14T08:14:18;12.50;1.00
38938;DHT22;24727;51.974;20.868;2023-03-14T08:16:44;12.60;1.00
38938;DHT22;24727;51.974;20.868;2023-03-14T08:19:10;12.70;1.00
38938;DHT22;24727;51.974;20.868;2023-03-14T08:21:35;12.70;1.00
38938;DHT22;24727;51.974;20.868;2023-03-14T08:24:04;12.70;1.00
38938;DHT22;24727;51.974;20.868;2023-03-14T08:26:30;12.80;1.00
38938;DHT22;24727;51.974;20.868;2023-03-14T08:28:58;12.80;1.00
38938;DHT22;24727;51.974;20.868;2023-03-14T08:31:25;12.90;1.00
38938;DHT22;24727;51.974;20.868;2023-03-14T08:33:52;12.90;1.00
38938;DHT22;24727;51.974;20.868;2023-03-14T08:36:20;12.90;1.00
38938;DHT22;24727;51.974;20.868;2023-03-14T08:38:46;13.00;1.00
38938;DHT22;24727;51.974;20.868;2023-03-14T08:41:12;13.10;1.00
38938;DHT22;24727;51.974;20.868;2023-03-14T08:43:39;13.30;1.00
38938;DHT22;24727;51.974;20.868;2023-03-14T08:46:06;13.30;1.00
38938;DHT22;24727;51.974;20.868;2023-03-14T08:48:32;13.50;1.00
38938;DHT22;24727;51.974;20.868;2023-03-14T08:51:13;13.50;1.00
38938;DHT22;24727;51.974;20.868;2023-03-14T08:53:41;13.70;1.00
38938;DHT22;24727;51.974;20.868;2023-03-14T08:56:07;13.80;1.00
38938;DHT22;24727;51.974;20.868;2023-03-14T08:58:37;14.00;1.00
38938;DHT22;24727;51.974;20.868;2023-03-14T09:01:05;14.10;1.00
38938;DHT22;24727;51.974;20.868;2023-03-14T09:03:32;14.20;1.00
38938;DHT22;24727;51.974;20.868;2023-03-14T09:06:04;14.40;1.00
38938;DHT22;24727;51.974;20.868;2023-03-14T09:08:30;14.50;1.00
38938;DHT22;24727;51.974;20.868;2023-03-14T09:10:57;14.70;1.00
38938;DHT22;24727;51.974;20.868;2023-03-14T09:13:23;14.60;1.00
38938;DHT22;24727;51.974;20.868;2023-03-14T09:15:53;14.40;1.00
38938;DHT22;24727;51.974;20.868;2023-03-14T09:18:20;14.50;1.00
38938;DHT22;24727;51.974;20.868;2023-03-14T09:20:47;14.50;1.00
38938;DHT22;24727;51.974;20.868;2023-03-14T09:23:13;14.60;1.00
38938;DHT22;24727;51.974;20.868;2023-03-14T09:25:39;14.50;1.00
38938;DHT22;24727;51.974;20.868;2023-03-14T09:28:06;14.70;1.00
38938;DHT22;24727;51.974;20.868;2023-03-14T09:30:32;14.80;1.00
38938;DHT22;24727;51.974;20.868;2023-03-14T09:32:59;14.80;1.00
38938;DHT22;24727;51.974;20.868;2023-03-14T09:35:25;14.60;1.00
38938;DHT22;24727;51.974;20.868;2023-03-14T09:37:51;14.70;1.00
38938;DHT22;24727;51.974;20.868;2023-03-14T09:40:21;15.00;1.00
38938;DHT22;24727;51.974;20.868;2023-03-14T09:42:52;14.90;1.00
38938;DHT22;24727;51.974;20.868;2023-03-14T09:45:29;14.90;1.00
38938;DHT22;24727;51.974;20.868;2023-03-14T09:47:57;15.00;1.00
38938;DHT22;24727;51.974;20.868;2023-03-14T09:50:30;15.10;1.00
38938;DHT22;24727;51.974;20.868;2023-03-14T09:52:59;15.00;1.00
38938;DHT22;24727;51.974;20.868;2023-03-14T09:55:27;14.90;1.00
38938;DHT22;24727;51.974;20.868;2023-03-14T09:57:58;14.90;1.00
38938;DHT22;24727;51.974;20.868;2023-03-14T10:00:28;15.00;1.00
38938;DHT22;24727;51.974;20.868;2023-03-14T10:05:41;14.80;1.00
38938;DHT22;24727;51.974;20.868;2023-03-14T10:08:12;14.90;1.00
38938;DHT22;24727;51.974;20.868;2023-03-14T10:10:39;15.00;1.00
38938;DHT22;24727;51.974;20.868;2023-03-14T10:13:23;15.00;1.00
38938;DHT22;24727;51.974;20.868;2023-03-14T10:16:04;14.90;1.00
38938;DHT22;24727;51.974;20.868;2023-03-14T10:18:34;14.80;1.00
38938;DHT22;24727;51.974;20.868;2023-03-14T10:21:17;14.80;1.00
38938;DHT22;24727;51.974;20.868;2023-03-14T10:23:45;14.90;1.00
38938;DHT22;24727;51.974;20.868;2023-03-14T10:26:18;15.00;1.00
38938;DHT22;24727;51.974;20.868;2023-03-14T10:28:51;15.40;1.00
38938;DHT22;24727;51.974;20.868;2023-03-14T10:31:17;15.10;1.00
38938;DHT22;24727;51.974;20.868;2023-03-14T10:34:00;15.00;1.00
38938;DHT22;24727;51.974;20.868;2023-03-14T10:36:31;15.10;1.00
38938;DHT22;24727;51.974;20.868;2023-03-14T10:41:56;14.70;1.00
38938;DHT22;24727;51.974;20.868;2023-03-14T10:44:28;14.60;1.00
38938;DHT22;24727;51.974;20.868;2023-03-14T10:47:04;14.50;1.00
38938;DHT22;24727;51.974;20.868;2023-03-14T10:49:36;14.70;1.00
38938;DHT22;24727;51.974;20.868;2023-03-14T10:52:21;14.70;1.00
38938;DHT22;24727;51.974;20.868;2023-03-14T10:55:02;14.80;1.00
38938;DHT22;24727;51.974;20.868;2023-03-14T10:57:29;14.90;1.00
38938;DHT22;24727;51.974;20.868;2023-03-14T10:59:57;14.90;1.00
38938;DHT22;24727;51.974;20.868;2023-03-14T11:08:09;15.00;1.00
38938;DHT22;24727;51.974;20.868;2023-03-14T11:10:39;15.20;1.00
38938;DHT22;24727;51.974;20.868;2023-03-14T11:13:30;15.10;1.00
38938;DHT22;24727;51.974;20.868;2023-03-14T11:16:28;15.00;1.00
38938;DHT22;24727;51.974;20.868;2023-03-14T11:19:24;14.50;1.00
38938;DHT22;24727;51.974;20.868;2023-03-14T11:30:19;14.10;1.00
38938;DHT22;24727;51.974;20.868;2023-03-14T11:33:04;14.10;1.00
38938;DHT22;24727;51.974;20.868;2023-03-14T11:35:43;14.10;1.00
38938;DHT22;24727;51.974;20.868;2023-03-14T11:40:37;14.00;1.00
38938;DHT22;24727;51.974;20.868;2023-03-14T11:43:17;13.90;1.00
38938;DHT22;24727;51.974;20.868;2023-03-14T11:45:47;13.90;1.00
38938;DHT22;24727;51.974;20.868;2023-03-14T11:51:51;14.00;1.00
38938;DHT22;24727;51.974;20.868;2023-03-14T11:54:16;14.20;1.00
38938;DHT22;24727;51.974;20.868;2023-03-14T11:57:10;14.50;1.00
38938;DHT22;24727;51.974;20.868;2023-03-14T12:02:16;14.80;1.00
38938;DHT22;24727;51.974;20.868;2023-03-14T12:07:39;14.90;1.00
38938;DHT22;24727;51.974;20.868;2023-03-14T12:10:08;14.90;1.00
38938;DHT22;24727;51.974;20.868;2023-03-14T12:12:37;14.70;1.00
38938;DHT22;24727;51.974;20.868;2023-03-14T12:15:04;14.60;1.00
38938;DHT22;24727;51.974;20.868;2023-03-14T12:17:41;14.40;1.00
38938;DHT22;24727;51.974;20.868;2023-03-14T12:20:20;14.30;1.00
38938;DHT22;24727;51.974;20.868;2023-03-14T12:22:51;14.20;1.00
38938;DHT22;24727;51.974;20.868;2023-03-14T12:25:27;14.00;1.00
38938;DHT22;24727;51.974;20.868;2023-03-14T12:33:20;13.60;1.00
38938;DHT22;24727;51.974;20.868;2023-03-14T12:35:58;13.50;1.00
38938;DHT22;24727;51.974;20.868;2023-03-14T12:41:48;13.40;1.00
38938;DHT22;24727;51.974;20.868;2023-03-14T12:49:52;13.20;1.00
38938;DHT22;24727;51.974;20.868;2023-03-14T12:55:32;13.00;1.00
38938;DHT22;24727;51.974;20.868;2023-03-14T12:58:08;13.00;1.00
38938;DHT22;24727;51.974;20.868;2023-03-14T13:00:39;13.00;1.00
38938;DHT22;24727;51.974;20.868;2023-03-14T13:03:51;12.90;1.00
38938;DHT22;24727;51.974;20.868;2023-03-14T13:06:54;12.70;1.00
38938;DHT22;24727;51.974;20.868;2023-03-14T13:12:09;12.40;1.00
38938;DHT22;24727;51.974;20.868;2023-03-14T13:14:40;12.30;1.00
38938;DHT22;24727;51.974;20.868;2023-03-14T13:17:11;12.20;1.00
38938;DHT22;24727;51.974;20.868;2023-03-14T13:19:40;12.10;1.00
38938;DHT22;24727;51.974;20.868;2023-03-14T13:22:24;12.10;1.00
38938;DHT22;24727;51.974;20.868;2023-03-14T13:25:02;12.10;1.00
38938;DHT22;24727;51.974;20.868;2023-03-14T13:27:31;12.10;1.00
38938;DHT22;24727;51.974;20.868;2023-03-14T13:29:58;12.10;1.00
38938;DHT22;24727;51.974;20.868;2023-03-14T13:32:28;12.10;1.00
38938;DHT22;24727;51.974;20.868;2023-03-14T13:34:58;12.10;1.00
38938;DHT22;24727;51.974;20.868;2023-03-14T13:37:26;12.00;1.00
38938;DHT22;24727;51.974;20.868;2023-03-14T13:39:56;11.90;1.00
38938;DHT22;24727;51.974;20.868;2023-03-14T13:42:29;11.70;1.00
38938;DHT22;24727;51.974;20.868;2023-03-14T13:44:56;11.50;1.00
38938;DHT22;24727;51.974;20.868;2023-03-14T13:47:24;11.40;1.00
38938;DHT22;24727;51.974;20.868;2023-03-14T13:49:52;11.40;1.00
38938;DHT22;24727;51.974;20.868;2023-03-14T13:52:29;11.30;1.00
38938;DHT22;24727;51.974;20.868;2023-03-14T13:54:57;11.20;1.00
38938;DHT22;24727;51.974;20.868;2023-03-14T13:57:25;11.10;1.00
38938;DHT22;24727;51.974;20.868;2023-03-14T14:00:06;11.00;1.00
38938;DHT22;24727;51.974;20.868;2023-03-14T14:02:36;10.90;1.00
38938;DHT22;24727;51.974;20.868;2023-03-14T14:05:04;10.80;1.00
38938;DHT22;24727;51.974;20.868;2023-03-14T14:07:33;10.90;1.00
38938;DHT22;24727;51.974;20.868;2023-03-14T14:09:59;10.60;1.00
38938;DHT22;24727;51.974;20.868;2023-03-14T14:12:42;10.60;1.00
38938;DHT22;24727;51.974;20.868;2023-03-14T14:15:23;10.60;1.00
38938;DHT22;24727;51.974;20.868;2023-03-14T14:18:02;10.70;1.00
38938;DHT22;24727;51.974;20.868;2023-03-14T14:23:05;10.50;1.00
38938;DHT22;24727;51.974;20.868;2023-03-14T14:25:33;10.60;1.00
38938;DHT22;24727;51.974;20.868;2023-03-14T14:28:28;10.70;1.00
38938;DHT22;24727;51.974;20.868;2023-03-14T14:31:02;10.90;1.00
38938;DHT22;24727;51.974;20.868;2023-03-14T14:33:39;11.10;1.00
38938;DHT22;24727;51.974;20.868;2023-03-14T14:38:51;11.50;1.00
38938;DHT22;24727;51.974;20.868;2023-03-14T14:41:19;11.60;1.00
38938;DHT22;24727;51.974;20.868;2023-03-14T14:43:45;11.40;1.00
38938;DHT22;24727;51.974;20.868;2023-03-14T14:46:17;11.30;1.00
38938;DHT22;24727;51.974;20.868;2023-03-14T14:48:45;11.40;1.00
38938;DHT22;24727;51.974;20.868;2023-03-14T14:51:32;11.30;1.00
38938;DHT22;24727;51.974;20.868;2023-03-14T14:54:15;11.20;1.00
38938;DHT22;24727;51.974;20.868;2023-03-14T14:56:48;11.10;1.00
38938;DHT22;24727;51.974;20.868;2023-03-14T14:59:26;11.20;1.00
38938;DHT22;24727;51.974;20.868;2023-03-14T15:02:00;11.30;1.00
38938;DHT22;24727;51.974;20.868;2023-03-14T15:04:27;11.40;1.00
38938;DHT22;24727;51.974;20.868;2023-03-14T15:06:55;11.30;1.00
38938;DHT22;24727;51.974;20.868;2023-03-14T15:09:21;11.10;1.00
38938;DHT22;24727;51.974;20.868;2023-03-14T15:11:48;10.90;1.00
38938;DHT22;24727;51.974;20.868;2023-03-14T15:14:14;10.80;1.00
38938;DHT22;24727;51.974;20.868;2023-03-14T15:16:42;10.90;1.00
38938;DHT22;24727;51.974;20.868;2023-03-14T15:19:14;11.00;1.00
38938;DHT22;24727;51.974;20.868;2023-03-14T15:21:42;10.90;1.00
38938;DHT22;24727;51.974;20.868;2023-03-14T15:24:09;10.80;1.00
38938;DHT22;24727;51.974;20.868;2023-03-14T15:26:35;10.80;1.00
38938;DHT22;24727;51.974;20.868;2023-03-14T15:29:02;10.70;1.00
38938;DHT22;24727;51.974;20.868;2023-03-14T15:31:28;10.90;1.00
38938;DHT22;24727;51.974;20.868;2023-03-14T15:33:54;11.00;1.00
38938;DHT22;24727;51.974;20.868;2023-03-14T15:36:23;10.90;1.00
38938;DHT22;24727;51.974;20.868;2023-03-14T15:38:52;10.90;1.00
38938;DHT22;24727;51.974;20.868;2023-03-14T15:41:19;10.80;1.00
38938;DHT22;24727;51.974;20.868;2023-03-14T15:43:49;10.80;1.00
38938;DHT22;24727;51.974;20.868;2023-03-14T15:46:16;10.90;1.00
38938;DHT22;24727;51.974;20.868;2023-03-14T15:48:46;10.80;1.00
38938;DHT22;24727;51.974;20.868;2023-03-14T15:51:12;10.70;1.00
38938;DHT22;24727;51.974;20.868;2023-03-14T15:53:39;10.70;1.00
38938;DHT22;24727;51.974;20.868;2023-03-14T15:56:16;10.60;1.00
38938;DHT22;24727;51.974;20.868;2023-03-14T15:58:43;10.60;1.00
38938;DHT22;24727;51.974;20.868;2023-03-14T16:01:16;10.50;1.00
38938;DHT22;24727;51.974;20.868;2023-03-14T16:03:43;10.50;1.00
38938;DHT22;24727;51.974;20.868;2023-03-14T16:06:12;10.60;1.00
38938;DHT22;24727;51.974;20.868;2023-03-14T16:08:39;10.70;1.00
38938;DHT22;24727;51.974;20.868;2023-03-14T16:11:05;10.70;1.00
38938;DHT22;24727;51.974;20.868;2023-03-14T16:13:31;10.70;1.00
38938;DHT22;24727;51.974;20.868;2023-03-14T16:16:01;10.70;1.00
38938;DHT22;24727;51.974;20.868;2023-03-14T16:18:29;10.70;1.00
38938;DHT22;24727;51.974;20.868;2023-03-14T16:21:06;10.90;1.00
38938;DHT22;24727;51.974;20.868;2023-03-14T16:23:33;10.70;1.00
38938;DHT22;24727;51.974;20.868;2023-03-14T16:26:03;10.60;1.00
38938;DHT22;24727;51.974;20.868;2023-03-14T16:28:31;10.60;1.00
38938;DHT22;24727;51.974;20.868;2023-03-14T16:31:08;10.70;1.00
38938;DHT22;24727;51.974;20.868;2023-03-14T16:33:36;10.60;1.00
38938;DHT22;24727;51.974;20.868;2023-03-14T16:36:06;10.60;1.00
38938;DHT22;24727;51.974;20.868;2023-03-14T16:38:38;10.70;1.00
38938;DHT22;24727;51.974;20.868;2023-03-14T16:41:10;10.60;1.00
38938;DHT22;24727;51.974;20.868;2023-03-14T16:43:36;10.60;1.00
38938;DHT22;24727;51.974;20.868;2023-03-14T16:46:04;10.60;1.00
38938;DHT22;24727;51.974;20.868;2023-03-14T16:48:32;10.60;1.00
38938;DHT22;24727;51.974;20.868;2023-03-14T16:50:58;10.60;1.00
38938;DHT22;24727;51.974;20.868;2023-03-14T16:53:25;10.60;1.00
38938;DHT22;24727;51.974;20.868;2023-03-14T16:55:54;10.70;1.00